Time;durP1;ratioP1;P1;durP2;ratioP2;P2;SDS_P1;SDS_P2;PMS_P1;PMS_P2;Temp;Humidity;BMP_temperature;BMP_pressure;BME280_temperature;BME280_humidity;BME280_pressure;Samples;Min_cycle;Max_cycle;Signal;HPM_P1;HPM_P2
2021/08/10 00:01:51;;;;;;;;;;;;;;;24.66;48.57;100984.03;4991050;28;1374;-64
2021/08/10 00:04:44;;;;;;;;;;;;;;;24.63;48.40;100984.28;4990476;28;1133;-63
2021/08/10 00:07:22;;;;;;;;;;;;;;;24.63;48.16;100986.94;4958856;28;1154;-64
2021/08/10 00:09:51;;;;;;;;;;;;;;;24.67;48.19;100978.59;4991080;28;1237;-64
2021/08/10 00:12:37;;;;;;;;;;;;;;;24.67;48.10;100983.06;4991130;28;1910;-63
2021/08/10 00:15:10;;;;;;;;;;;;;;;24.64;48.06;100983.31;4957669;28;2009;-64
2021/08/10 00:17:37;;;;;;;;;;;;;;;24.71;47.96;100981.88;4990617;28;850;-63
2021/08/10 00:20:15;;;;;;;;;;;;;;;24.65;47.86;100979.69;4968502;28;1356;-63
2021/08/10 00:22:44;;;;;;;;;;;;;;;24.60;47.95;100976.53;4952355;28;1974;-63
2021/08/10 00:25:26;;;;;;;;;;;;;;;24.59;48.08;100958.88;4952181;28;1269;-62
2021/08/10 00:27:52;;;;;;;;;;;;;;;24.60;48.09;100965.88;4968413;28;839;-62
2021/08/10 00:30:22;;;;;;;;;;;;;;;24.55;48.10;100984.03;4968519;28;1253;-62
2021/08/10 00:33:12;;;;;;;;;;;;;;;24.59;48.10;100981.03;4952152;28;1910;-64
2021/08/10 00:35:49;;;;;;;;;;;;;;;24.51;48.24;100991.41;4968343;28;1307;-63
2021/08/10 00:38:16;;;;;;;;;;;;;;;24.61;48.15;100997.72;4968656;28;941;-63
2021/08/10 00:41:01;;;;;;;;;;;;;;;24.56;47.95;100993.72;4967926;28;1344;-64
2021/08/10 00:43:36;;;;;;;;;;;;;;;24.57;47.71;101000.72;4968102;28;1076;-64
2021/08/10 00:46:06;;;;;;;;;;;;;;;24.62;47.27;101001.25;4967568;28;1242;-65
2021/08/10 00:48:33;;;;;;;;;;;;;;;24.59;47.16;100997.00;4951084;28;1628;-64
2021/08/10 00:51:00;;;;;;;;;;;;;;;24.55;46.96;101000.00;4977491;28;1253;-63
2021/08/10 00:53:27;;;;;;;;;;;;;;;24.58;47.02;100991.78;4972436;28;1919;-64
2021/08/10 00:55:54;;;;;;;;;;;;;;;24.60;46.81;100984.50;4972630;28;1779;-62
2021/08/10 00:58:21;;;;;;;;;;;;;;;24.58;47.18;100963.34;4972764;28;1019;-62
2021/08/10 01:00:48;;;;;;;;;;;;;;;24.62;46.65;100964.81;4972377;28;1333;-63
2021/08/10 01:03:17;;;;;;;;;;;;;;;24.59;46.85;100964.19;4990192;28;1158;-62
2021/08/10 01:05:45;;;;;;;;;;;;;;;24.63;46.52;100960.31;4989855;28;1320;-62
2021/08/10 01:08:22;;;;;;;;;;;;;;;24.63;46.76;100966.47;4972553;28;921;-63
2021/08/10 01:10:56;;;;;;;;;;;;;;;24.63;46.66;100968.28;4989377;28;1311;-63
2021/08/10 01:13:23;;;;;;;;;;;;;;;24.67;46.58;100961.75;4989657;28;1969;-62
2021/08/10 01:15:57;;;;;;;;;;;;;;;24.62;46.92;100963.94;4972015;28;1408;-63
2021/08/10 01:18:32;;;;;;;;;;;;;;;24.57;47.46;100953.63;4989867;28;863;-64
2021/08/10 01:21:18;;;;;;;;;;;;;;;24.60;46.96;100948.06;4972521;28;1380;-63
2021/08/10 01:23:48;;;;;;;;;;;;;;;24.57;47.33;100942.13;4989859;28;958;-63
2021/08/10 01:26:18;;;;;;;;;;;;;;;24.57;47.25;100950.13;4989766;28;1334;-63
2021/08/10 01:28:52;;;;;;;;;;;;;;;24.62;46.94;100939.97;4989572;28;1014;-64
2021/08/10 01:31:24;;;;;;;;;;;;;;;24.57;47.78;100936.81;4955934;28;1229;-64
2021/08/10 01:33:57;;;;;;;;;;;;;;;24.56;47.46;100948.44;4989826;28;1910;-63
2021/08/10 01:36:25;;;;;;;;;;;;;;;24.66;47.27;100942.25;4989464;28;1279;-63
2021/08/10 01:39:00;;;;;;;;;;;;;;;24.66;47.35;100941.41;4988610;28;1163;-64
2021/08/10 01:41:46;;;;;;;;;;;;;;;24.56;47.81;100938.66;4982260;28;1332;-64
2021/08/10 01:44:18;;;;;;;;;;;;;;;24.48;47.71;100925.91;4972033;28;1091;-63
2021/08/10 01:46:45;;;;;;;;;;;;;;;24.55;47.24;100934.28;4988962;28;1284;-63
2021/08/10 01:49:13;;;;;;;;;;;;;;;24.56;47.04;100927.16;4971695;28;1190;-64
2021/08/10 01:51:41;;;;;;;;;;;;;;;24.55;47.09;100931.63;4971497;28;1956;-64
2021/08/10 01:54:09;;;;;;;;;;;;;;;24.50;47.50;100925.78;4988876;28;2052;-64
2021/08/10 01:56:36;;;;;;;;;;;;;;;24.51;47.13;100929.31;4989025;28;1245;-64
2021/08/10 01:59:04;;;;;;;;;;;;;;;24.52;46.97;100917.69;4971524;28;1075;-65
2021/08/10 02:01:31;;;;;;;;;;;;;;;24.53;47.12;100908.75;4988591;28;1307;-65
2021/08/10 02:03:59;;;;;;;;;;;;;;;24.55;47.10;100925.44;4989081;28;1047;-65
2021/08/10 02:06:26;;;;;;;;;;;;;;;24.54;46.78;100924.59;4971373;28;1225;-65
2021/08/10 02:08:53;;;;;;;;;;;;;;;24.56;47.03;100928.00;4989137;28;1041;-64
2021/08/10 02:11:30;;;;;;;;;;;;;;;24.54;46.71;100937.06;4971953;28;1210;-63
2021/08/10 02:13:59;;;;;;;;;;;;;;;24.57;46.99;100943.00;4970769;28;1950;-63
2021/08/10 02:16:27;;;;;;;;;;;;;;;24.56;47.04;100937.81;4988424;28;1218;-63
2021/08/10 02:18:54;;;;;;;;;;;;;;;24.59;47.26;100926.91;4988525;28;1081;-63
2021/08/10 02:21:26;;;;;;;;;;;;;;;24.52;47.03;100925.69;4988606;28;1328;-63
2021/08/10 02:24:00;;;;;;;;;;;;;;;24.51;47.37;100926.63;4988523;28;1050;-64
2021/08/10 02:26:28;;;;;;;;;;;;;;;24.50;47.46;100927.63;4988485;28;1371;-65
2021/08/10 02:28:54;;;;;;;;;;;;;;;24.47;47.56;100932.19;4970391;28;1177;-64
2021/08/10 02:31:23;;;;;;;;;;;;;;;24.52;47.33;100939.00;4988110;28;1225;-63
2021/08/10 02:33:50;;;;;;;;;;;;;;;24.55;47.23;100922.78;4970331;28;1918;-62
2021/08/10 02:36:18;;;;;;;;;;;;;;;24.57;47.29;100926.16;4988234;28;1206;-62
2021/08/10 02:38:45;;;;;;;;;;;;;;;24.54;47.28;100921.06;4971097;28;1170;-63
2021/08/10 02:41:12;;;;;;;;;;;;;;;24.55;47.36;100920.13;4988877;28;1183;-64
2021/08/10 02:43:40;;;;;;;;;;;;;;;24.54;47.20;100918.41;4970933;28;934;-63
2021/08/10 02:46:07;;;;;;;;;;;;;;;24.55;47.30;100925.44;4988455;28;1201;-64
2021/08/10 02:48:33;;;;;;;;;;;;;;;24.55;47.24;100920.13;4988568;28;1082;-64
2021/08/10 02:51:00;;;;;;;;;;;;;;;24.56;47.08;100913.84;4988448;28;1312;-63
2021/08/10 02:53:28;;;;;;;;;;;;;;;24.58;47.28;100914.53;4988352;28;1914;-64
2021/08/10 02:55:59;;;;;;;;;;;;;;;24.57;47.60;100910.19;4988710;28;1233;-63
2021/08/10 02:58:27;;;;;;;;;;;;;;;24.52;47.60;100904.38;4988459;28;1091;-64
2021/08/10 03:01:06;;;;;;;;;;;;;;;24.54;47.70;100887.31;4988298;28;1323;-64
2021/08/10 03:03:33;;;;;;;;;;;;;;;24.48;47.75;100887.78;4988108;28;1085;-64
2021/08/10 03:06:01;;;;;;;;;;;;;;;24.49;47.97;100886.84;4970503;28;1244;-65
2021/08/10 03:08:31;;;;;;;;;;;;;;;24.45;47.73;100885.38;4988582;28;1135;-64
2021/08/10 03:11:03;;;;;;;;;;;;;;;24.51;47.97;100892.03;4971914;28;1261;-64
2021/08/10 03:13:34;;;;;;;;;;;;;;;24.42;47.97;100882.94;4988281;28;1981;-64
2021/08/10 03:16:01;;;;;;;;;;;;;;;24.47;48.06;100884.28;4988686;28;1334;-65
2021/08/10 03:18:30;;;;;;;;;;;;;;;24.44;48.01;100879.19;4988409;28;1181;-64
2021/08/10 03:20:59;;;;;;;;;;;;;;;24.45;48.12;100877.38;4988183;28;1174;-64
2021/08/10 03:23:28;;;;;;;;;;;;;;;24.47;48.11;100897.59;4988297;28;1049;-64
2021/08/10 03:25:55;;;;;;;;;;;;;;;24.46;48.15;100895.91;4988346;28;1230;-65
2021/08/10 03:28:25;;;;;;;;;;;;;;;24.51;47.92;100887.53;4988119;28;982;-64
2021/08/10 03:30:53;;;;;;;;;;;;;;;24.54;48.86;100876.66;4988034;28;1363;-64
2021/08/10 03:33:21;;;;;;;;;;;;;;;24.54;48.16;100886.44;4988038;28;1966;-64
2021/08/10 03:35:48;;;;;;;;;;;;;;;24.52;48.44;100883.94;4988007;28;1334;-64
2021/08/10 03:38:16;;;;;;;;;;;;;;;24.53;48.53;100874.94;4988635;28;1114;-65
2021/08/10 03:40:42;;;;;;;;;;;;;;;24.44;48.92;100886.31;4973329;28;1245;-64
2021/08/10 03:43:10;;;;;;;;;;;;;;;24.44;49.03;100876.53;4991557;28;1097;-64
2021/08/10 03:45:37;;;;;;;;;;;;;;;24.45;48.96;100882.69;4991876;28;1297;-62
2021/08/10 03:48:03;;;;;;;;;;;;;;;24.42;49.71;100881.13;4973200;28;1158;-63
2021/08/10 03:50:30;;;;;;;;;;;;;;;24.41;49.12;100887.41;4973903;28;1512;-63
2021/08/10 03:52:57;;;;;;;;;;;;;;;24.31;49.58;100886.47;4991380;28;1914;-63
2021/08/10 03:55:24;;;;;;;;;;;;;;;24.36;49.47;100878.97;4991776;28;1355;-63
2021/08/10 03:57:52;;;;;;;;;;;;;;;24.38;49.19;100887.66;4991844;28;728;-62
2021/08/10 04:00:19;;;;;;;;;;;;;;;24.43;49.21;100880.19;4991675;28;1273;-63
2021/08/10 04:02:51;;;;;;;;;;;;;;;24.51;48.82;100876.91;4991482;28;1097;-63
2021/08/10 04:05:18;;;;;;;;;;;;;;;24.47;48.92;100896.72;4973851;28;1371;-62
2021/08/10 04:07:54;;;;;;;;;;;;;;;24.53;48.68;100884.78;4991893;28;779;-64
2021/08/10 04:10:25;;;;;;;;;;;;;;;24.54;48.69;100889.13;4973798;28;1277;-63
2021/08/10 04:12:52;;;;;;;;;;;;;;;24.52;48.96;100899.91;4991456;28;1984;-63
2021/08/10 04:15:19;;;;;;;;;;;;;;;24.48;48.85;100879.81;4991502;28;1269;-63
2021/08/10 04:17:48;;;;;;;;;;;;;;;24.45;48.60;100891.53;4991248;28;1246;-63
2021/08/10 04:20:17;;;;;;;;;;;;;;;24.46;48.92;100895.91;4991280;28;1272;-63
2021/08/10 04:22:43;;;;;;;;;;;;;;;24.44;48.78;100884.50;4991639;28;1095;-63
2021/08/10 04:25:10;;;;;;;;;;;;;;;24.50;48.52;100885.84;4991540;28;1272;-64
2021/08/10 04:27:37;;;;;;;;;;;;;;;24.45;48.83;100885.38;4990892;28;942;-64
2021/08/10 04:30:04;;;;;;;;;;;;;;;24.36;48.92;100894.94;4991297;28;1292;-64
2021/08/10 04:32:30;;;;;;;;;;;;;;;24.41;48.83;100903.41;4991059;28;768;-66
2021/08/10 04:34:58;;;;;;;;;;;;;;;24.45;49.13;100901.34;4991211;28;1910;-65
2021/08/10 04:37:25;;;;;;;;;;;;;;;24.40;49.00;100900.88;4990744;28;930;-65
2021/08/10 04:39:54;;;;;;;;;;;;;;;24.38;49.20;100887.66;4991477;28;1368;-63
2021/08/10 04:42:33;;;;;;;;;;;;;;;24.41;49.33;100887.41;4991151;28;985;-64
2021/08/10 04:45:00;;;;;;;;;;;;;;;24.38;49.40;100903.63;4973941;28;1240;-65
2021/08/10 04:47:27;;;;;;;;;;;;;;;24.42;49.42;100897.09;4989977;28;1174;-64
2021/08/10 04:49:53;;;;;;;;;;;;;;;24.43;49.36;100900.63;4972898;28;1351;-64
2021/08/10 04:52:21;;;;;;;;;;;;;;;24.33;49.70;100900.50;4990477;28;1077;-63
2021/08/10 04:54:48;;;;;;;;;;;;;;;24.33;49.65;100902.31;4973007;28;1910;-63
2021/08/10 04:57:15;;;;;;;;;;;;;;;24.38;49.45;100903.63;4990647;28;776;-63
2021/08/10 04:59:42;;;;;;;;;;;;;;;24.38;49.63;100905.44;4972680;28;1272;-63
2021/08/10 05:02:08;;;;;;;;;;;;;;;24.37;49.95;100909.09;4990292;28;1080;-64
2021/08/10 05:04:35;;;;;;;;;;;;;;;24.25;49.77;100916.22;4990569;28;1084;-64
2021/08/10 05:07:02;;;;;;;;;;;;;;;24.26;49.75;100909.91;4990574;28;1373;-64
2021/08/10 05:09:32;;;;;;;;;;;;;;;24.30;49.50;100908.72;4990295;28;1185;-63
2021/08/10 05:12:09;;;;;;;;;;;;;;;24.27;49.48;100906.28;4972702;28;1493;-64
2021/08/10 05:14:43;;;;;;;;;;;;;;;24.27;49.60;100894.78;4970766;28;1972;-64
2021/08/10 05:17:12;;;;;;;;;;;;;;;24.28;49.47;100892.03;4987420;28;862;-63
2021/08/10 05:19:39;;;;;;;;;;;;;;;24.24;49.77;100887.03;4987508;28;1368;-63
2021/08/10 05:22:06;;;;;;;;;;;;;;;24.30;49.75;100890.09;4987937;28;831;-64
2021/08/10 05:24:33;;;;;;;;;;;;;;;24.31;49.47;100886.47;4987502;28;1440;-63
2021/08/10 05:26:59;;;;;;;;;;;;;;;24.32;49.47;100877.50;4971277;28;1304;-64
2021/08/10 05:29:26;;;;;;;;;;;;;;;24.31;49.36;100883.81;4987034;28;1170;-63
2021/08/10 05:31:53;;;;;;;;;;;;;;;24.27;49.42;100879.69;4970448;28;1293;-63
2021/08/10 05:34:19;;;;;;;;;;;;;;;24.31;49.30;100889.13;4986231;28;2123;-63
2021/08/10 05:36:46;;;;;;;;;;;;;;;24.31;49.07;100890.94;4970414;28;1309;-64
2021/08/10 05:39:18;;;;;;;;;;;;;;;24.30;49.23;100894.56;4987035;28;1081;-63
2021/08/10 05:41:51;;;;;;;;;;;;;;;24.35;48.90;100893.22;4929152;29;1262;-62
2021/08/10 05:44:18;;;;;;;;;;;;;;;24.34;48.94;100904.88;4929352;29;1086;-63
2021/08/10 05:46:45;;;;;;;;;;;;;;;24.32;48.81;100909.44;4913349;29;1219;-63
2021/08/10 05:49:12;;;;;;;;;;;;;;;24.31;49.05;100909.56;4929008;29;949;-63
2021/08/10 05:51:38;;;;;;;;;;;;;;;24.32;49.08;100909.44;4929054;29;1317;-62
2021/08/10 05:54:07;;;;;;;;;;;;;;;24.32;49.03;100919.22;4929007;29;1907;-63
2021/08/10 05:56:34;;;;;;;;;;;;;;;24.31;48.59;100921.06;4928572;29;1223;-65
2021/08/10 05:59:00;;;;;;;;;;;;;;;24.28;48.87;100902.69;4901489;29;1517;-65
2021/08/10 06:01:27;;;;;;;;;;;;;;;24.27;49.01;100914.28;4889581;29;1424;-67
2021/08/10 06:03:54;;;;;;;;;;;;;;;24.29;48.92;100919.47;4873681;29;1259;-66
2021/08/10 06:06:21;;;;;;;;;;;;;;;24.28;49.01;100918.66;4889444;29;1294;-65
2021/08/10 06:08:47;;;;;;;;;;;;;;;24.20;49.02;100926.34;4874286;29;1180;-66
2021/08/10 06:11:14;;;;;;;;;;;;;;;24.24;49.00;100926.97;4873901;29;1259;-67
2021/08/10 06:13:41;;;;;;;;;;;;;;;24.17;49.24;100936.38;4889266;29;1907;-66
2021/08/10 06:16:07;;;;;;;;;;;;;;;24.13;49.07;100908.34;4873720;29;1428;-63
2021/08/10 06:18:35;;;;;;;;;;;;;;;24.21;48.84;100917.41;4897751;29;1057;-64
2021/08/10 06:21:02;;;;;;;;;;;;;;;24.15;49.10;100931.19;4930651;29;1324;-65
2021/08/10 06:23:29;;;;;;;;;;;;;;;24.12;49.29;100928.78;4930528;29;1280;-66
2021/08/10 06:25:56;;;;;;;;;;;;;;;24.12;49.12;100949.22;4929044;29;1352;-67
2021/08/10 06:28:22;;;;;;;;;;;;;;;24.16;49.12;100956.00;4930283;29;764;-66
2021/08/10 06:30:49;;;;;;;;;;;;;;;24.18;49.26;100943.41;4930569;29;1249;-64
2021/08/10 06:33:16;;;;;;;;;;;;;;;24.19;49.65;100955.78;4930352;29;1906;-63
2021/08/10 06:35:43;;;;;;;;;;;;;;;24.24;50.04;100954.44;4930351;29;1257;-64
2021/08/10 06:38:11;;;;;;;;;;;;;;;24.20;49.91;100949.47;4914709;29;1376;-63
2021/08/10 06:40:38;;;;;;;;;;;;;;;24.25;50.38;100947.31;4930456;29;1246;-63
2021/08/10 06:43:07;;;;;;;;;;;;;;;24.24;51.38;100942.94;4930734;29;776;-63
2021/08/10 06:45:35;;;;;;;;;;;;;;;24.27;51.93;100943.56;4930482;29;1328;-63
2021/08/10 06:48:03;;;;;;;;;;;;;;;24.26;52.43;100944.50;4930968;29;736;-65
2021/08/10 06:50:30;;;;;;;;;;;;;;;24.27;52.80;100948.88;4931440;29;1230;-63
2021/08/10 06:52:57;;;;;;;;;;;;;;;24.28;53.33;100966.56;4931536;29;854;-65
2021/08/10 06:55:24;;;;;;;;;;;;;;;24.32;54.17;100972.47;4932042;28;1992;-65
2021/08/10 06:57:51;;;;;;;;;;;;;;;24.31;54.33;100966.31;4938355;28;1155;-63
2021/08/10 07:00:18;;;;;;;;;;;;;;;24.35;54.89;100970.44;4933291;28;1625;-62
2021/08/10 07:02:49;;;;;;;;;;;;;;;24.40;55.46;100970.94;4937276;28;1421;-63
2021/08/10 07:05:21;;;;;;;;;;;;;;;24.43;56.13;100991.16;4921205;28;1588;-64
2021/08/10 07:07:48;;;;;;;;;;;;;;;24.44;56.65;100998.16;4935701;28;1455;-64
2021/08/10 07:10:14;;;;;;;;;;;;;;;24.45;56.98;101016.69;4936360;28;1485;-67
2021/08/10 07:12:41;;;;;;;;;;;;;;;24.54;56.91;101019.59;4939065;28;1518;-62
2021/08/10 07:15:12;;;;;;;;;;;;;;;24.61;56.29;101018.19;4959156;28;1914;-65
2021/08/10 07:17:39;;;;;;;;;;;;;;;24.66;55.79;101014.19;4959994;28;1351;-65
2021/08/10 07:20:06;;;;;;;;;;;;;;;24.71;55.19;101028.00;4958533;28;1486;-64
2021/08/10 07:22:33;;;;;;;;;;;;;;;24.83;54.56;101018.25;4957230;28;1336;-63
2021/08/10 07:25:01;;;;;;;;;;;;;;;24.83;54.54;100999.59;4952226;28;1210;-64
2021/08/10 07:27:28;;;;;;;;;;;;;;;24.86;54.28;100999.34;4951999;28;1027;-66
2021/08/10 07:29:54;;;;;;;;;;;;;;;24.88;54.17;101014.25;4952184;28;1289;-68
2021/08/10 07:32:21;;;;;;;;;;;;;;;24.90;55.62;101022.09;4951539;28;1086;-66
2021/08/10 07:34:49;;;;;;;;;;;;;;;24.88;56.38;101024.06;4951517;29;1914;-69
2021/08/10 07:37:16;;;;;;;;;;;;;;;24.89;56.39;101025.75;4951436;28;1207;-67
2021/08/10 07:39:43;;;;;;;;;;;;;;;24.86;56.86;101036.66;4952900;29;1333;-67
2021/08/10 07:42:11;;;;;;;;;;;;;;;24.90;57.10;101012.28;4952883;28;1054;-70
2021/08/10 07:44:38;;;;;;;;;;;;;;;24.90;56.78;101006.97;4947505;28;2035;-68
2021/08/10 07:47:06;;;;;;;;;;;;;;;24.93;56.88;101020.06;4971124;28;1215;-67
2021/08/10 07:49:34;;;;;;;;;;;;;;;24.95;56.12;101030.59;4953124;28;1045;-67
2021/08/10 07:52:01;;;;;;;;;;;;;;;24.94;56.90;101020.91;4970611;28;1256;-72
2021/08/10 07:54:28;;;;;;;;;;;;;;;25.00;56.65;101026.59;4953017;28;1914;-67
2021/08/10 07:56:56;;;;;;;;;;;;;;;24.98;56.52;101038.38;4953438;28;1316;-68
2021/08/10 07:59:23;;;;;;;;;;;;;;;25.06;56.58;101041.25;4970576;28;772;-66
2021/08/10 08:01:49;;;;;;;;;;;;;;;25.04;56.28;101043.22;4953494;28;1211;-66
2021/08/10 08:04:16;;;;;;;;;;;;;;;25.05;55.57;101042.22;4952924;28;812;-66
2021/08/10 08:06:43;;;;;;;;;;;;;;;25.05;55.81;101039.56;4970701;28;1238;-67
2021/08/10 08:09:10;;;;;;;;;;;;;;;25.04;55.34;101051.19;4970134;28;1185;-68
2021/08/10 08:11:36;;;;;;;;;;;;;;;25.02;55.52;101047.78;4970313;28;1217;-64
2021/08/10 08:14:03;;;;;;;;;;;;;;;25.02;55.43;101045.13;4970854;28;1980;-63
2021/08/10 08:16:30;;;;;;;;;;;;;;;25.05;55.44;101052.06;4971556;28;1252;-65
2021/08/10 08:18:56;;;;;;;;;;;;;;;25.06;54.77;101053.72;4970968;28;1252;-64
2021/08/10 08:21:25;;;;;;;;;;;;;;;25.05;55.40;101065.38;4971008;28;1230;-64
2021/08/10 08:23:51;;;;;;;;;;;;;;;25.05;55.79;101082.19;4953516;28;1825;-64
2021/08/10 08:26:19;;;;;;;;;;;;;;;25.07;55.43;101082.09;4970226;28;1324;-64
2021/08/10 08:28:46;;;;;;;;;;;;;;;25.06;55.23;101067.91;4971459;28;862;-64
2021/08/10 08:31:12;;;;;;;;;;;;;;;25.05;55.20;101063.53;4971631;28;1213;-64
2021/08/10 08:33:39;;;;;;;;;;;;;;;25.06;55.17;101051.06;4971341;28;831;-65
2021/08/10 08:36:06;;;;;;;;;;;;;;;25.06;55.14;101038.59;4971305;28;1989;-63
2021/08/10 08:38:33;;;;;;;;;;;;;;;25.06;54.98;101024.41;4971234;28;806;-66
2021/08/10 08:41:03;;;;;;;;;;;;;;;25.08;55.19;101033.16;4971128;28;1253;-64
2021/08/10 08:43:30;;;;;;;;;;;;;;;25.08;54.75;101049.97;4971130;28;1052;-65
2021/08/10 08:45:57;;;;;;;;;;;;;;;25.08;54.84;101046.47;4953270;28;1205;-64
2021/08/10 08:48:25;;;;;;;;;;;;;;;25.07;54.74;101050.09;4953250;28;1595;-64
2021/08/10 08:50:52;;;;;;;;;;;;;;;25.04;55.13;101056.53;4953932;28;1234;-63
2021/08/10 08:53:19;;;;;;;;;;;;;;;25.09;54.81;101066.81;4954065;28;1099;-65
2021/08/10 08:55:46;;;;;;;;;;;;;;;25.08;55.14;101076.63;4971575;28;1910;-63
2021/08/10 08:58:13;;;;;;;;;;;;;;;25.09;55.17;101081.00;4970635;28;771;-63
2021/08/10 09:00:40;;;;;;;;;;;;;;;25.10;55.00;101068.53;4970605;28;1190;-62
2021/08/10 09:03:07;;;;;;;;;;;;;;;25.09;55.09;101066.81;4953822;28;826;-63
2021/08/10 09:05:54;;;;;;;;;;;;;;;25.12;54.41;101059.44;4968400;28;1316;-64
2021/08/10 09:08:29;;;;;;;;;;;;;;;25.13;54.51;101055.81;4970671;28;775;-67
2021/08/10 09:11:03;;;;;;;;;;;;;;;25.14;54.82;101057.47;4970946;28;1360;-65
2021/08/10 09:13:30;;;;;;;;;;;;;;;25.16;54.44;101041.38;4970751;28;1178;-65
2021/08/10 09:15:58;;;;;;;;;;;;;;;25.14;54.70;101022.00;4971239;28;1977;-65
2021/08/10 09:18:25;;;;;;;;;;;;;;;25.15;54.31;101037.88;4970442;28;866;-65
2021/08/10 09:21:09;;;;;;;;;;;;;;;25.17;54.74;101056.41;4971166;28;1306;-65
2021/08/10 09:23:39;;;;;;;;;;;;;;;25.17;54.43;101049.25;4970851;28;936;-63
2021/08/10 09:26:10;;;;;;;;;;;;;;;25.18;54.70;101068.75;4970745;28;1285;-63
2021/08/10 09:28:37;;;;;;;;;;;;;;;25.19;53.58;101100.66;4970673;28;796;-63
2021/08/10 09:31:23;;;;;;;;;;;;;;;25.20;54.58;101098.84;4953198;28;1351;-64
2021/08/10 09:33:49;;;;;;;;;;;;;;;25.19;54.42;101057.13;4952901;28;1193;-64
2021/08/10 09:36:20;;;;;;;;;;;;;;;25.19;54.34;101051.81;4970001;28;1902;-63
2021/08/10 09:38:48;;;;;;;;;;;;;;;25.19;54.08;101042.00;4952198;28;873;-64
2021/08/10 09:41:15;;;;;;;;;;;;;;;25.19;54.39;101028.66;4952881;28;1217;-65
2021/08/10 09:43:42;;;;;;;;;;;;;;;25.19;54.16;101028.66;4970923;28;830;-63
2021/08/10 09:46:08;;;;;;;;;;;;;;;25.20;54.41;101049.00;4970740;28;1225;-64
2021/08/10 09:48:36;;;;;;;;;;;;;;;25.20;54.61;101075.66;4953383;28;1226;-63
2021/08/10 09:51:07;;;;;;;;;;;;;;;25.21;54.29;101096.03;4970791;28;1302;-64
2021/08/10 09:53:33;;;;;;;;;;;;;;;25.21;53.76;101057.84;4952783;28;1328;-65
2021/08/10 09:56:00;;;;;;;;;;;;;;;25.20;53.79;101057.00;4970174;28;1976;-62
2021/08/10 09:58:27;;;;;;;;;;;;;;;25.21;53.42;101053.38;4970303;28;877;-63
2021/08/10 10:01:02;;;;;;;;;;;;;;;25.21;53.67;101061.38;4970033;28;1229;-63
2021/08/10 10:03:29;;;;;;;;;;;;;;;25.21;53.31;101093.38;4969941;28;811;-63
2021/08/10 10:05:56;;;;;;;;;;;;;;;25.23;53.38;101091.41;4952428;28;1230;-66
2021/08/10 10:08:24;;;;;;;;;;;;;;;25.21;53.10;101069.38;4969413;28;1143;-62
2021/08/10 10:10:54;;;;;;;;;;;;;;;25.20;53.19;101035.66;4969875;28;1209;-63
2021/08/10 10:13:22;;;;;;;;;;;;;;;25.20;52.79;101022.34;4969531;28;1420;-64
2021/08/10 10:15:50;;;;;;;;;;;;;;;25.21;52.50;101053.38;4969282;28;1915;-63
2021/08/10 10:18:17;;;;;;;;;;;;;;;25.23;52.11;101088.75;4969419;28;838;-64
2021/08/10 10:20:46;;;;;;;;;;;;;;;25.23;52.08;101077.25;4952258;28;1299;-63
2021/08/10 10:23:16;;;;;;;;;;;;;;;25.21;52.29;101034.72;4952271;28;1275;-63
2021/08/10 10:25:43;;;;;;;;;;;;;;;25.19;52.21;101015.34;4969766;28;1359;-63
2021/08/10 10:28:11;;;;;;;;;;;;;;;25.20;51.95;101003.69;4969754;28;1063;-62
2021/08/10 10:30:38;;;;;;;;;;;;;;;25.20;51.42;101002.84;4951809;28;1293;-66
2021/08/10 10:33:07;;;;;;;;;;;;;;;25.21;51.52;101031.19;4969807;28;1061;-65
2021/08/10 10:35:34;;;;;;;;;;;;;;;25.22;51.45;101046.22;4952353;28;1906;-65
2021/08/10 10:38:01;;;;;;;;;;;;;;;25.19;51.82;101023.34;4969827;28;1088;-66
2021/08/10 10:40:28;;;;;;;;;;;;;;;25.27;51.17;100986.22;4951294;28;1726;-70
2021/08/10 10:42:55;;;;;;;;;;;;;;;25.31;51.65;100977.03;4950731;28;1442;-69
2021/08/10 10:45:30;;;;;;;;;;;;;;;25.31;52.12;100969.03;4968166;28;1257;-73
2021/08/10 10:47:57;;;;;;;;;;;;;;;25.32;51.94;100965.38;4950614;28;1250;-71
2021/08/10 10:50:24;;;;;;;;;;;;;;;25.36;52.46;100993.50;4968530;28;1308;-70
2021/08/10 10:52:58;;;;;;;;;;;;;;;25.35;52.43;101002.44;4951023;28;1143;-70
2021/08/10 10:55:33;;;;;;;;;;;;;;;25.39;52.12;100955.91;4968282;28;1910;-70
2021/08/10 10:58:00;;;;;;;;;;;;;;;25.38;51.98;100908.88;4949922;28;1648;-69
2021/08/10 11:00:29;;;;;;;;;;;;;;;25.38;51.99;100948.88;4962734;28;1372;-70
2021/08/10 11:03:10;;;;;;;;;;;;;;;25.39;52.08;100942.56;4963678;28;1203;-71
2021/08/10 11:05:37;;;;;;;;;;;;;;;25.39;52.15;100979.91;4948083;28;1356;-71
2021/08/10 11:08:05;;;;;;;;;;;;;;;25.39;52.14;101013.72;4967209;28;1253;-71
2021/08/10 11:10:43;;;;;;;;;;;;;;;25.40;51.88;100994.09;4949619;28;1564;-72
2021/08/10 11:13:19;;;;;;;;;;;;;;;25.39;51.81;100982.56;4961394;28;1543;-69
2021/08/10 11:15:45;;;;;;;;;;;;;;;25.42;51.92;101072.13;4972927;28;1914;-69
2021/08/10 11:18:12;;;;;;;;;;;;;;;25.44;52.19;101028.38;4972421;28;1115;-69
2021/08/10 11:20:47;;;;;;;;;;;;;;;25.48;51.46;100935.63;4963758;28;1359;-68
2021/08/10 11:23:24;;;;;;;;;;;;;;;25.46;52.09;100908.25;4978636;28;1005;-70
2021/08/10 11:25:51;;;;;;;;;;;;;;;25.46;52.11;100951.78;4978114;28;1312;-67
2021/08/10 11:28:27;;;;;;;;;;;;;;;25.52;51.17;101031.31;4971600;28;1191;-68
2021/08/10 11:30:55;;;;;;;;;;;;;;;25.48;51.23;101045.88;4970699;28;1321;-71
2021/08/10 11:33:35;;;;;;;;;;;;;;;25.47;51.66;101037.97;4948962;28;1120;-69
2021/08/10 11:36:11;;;;;;;;;;;;;;;25.48;51.61;101023.66;4966933;28;1910;-63
2021/08/10 11:38:44;;;;;;;;;;;;;;;25.46;51.61;101045.13;4967543;28;1187;-65
2021/08/10 11:41:12;;;;;;;;;;;;;;;25.48;51.77;101082.31;4968183;28;1336;-68
2021/08/10 11:43:46;;;;;;;;;;;;;;;25.49;51.59;101052.06;4968338;28;1136;-71
2021/08/10 11:46:18;;;;;;;;;;;;;;;25.49;51.57;101046.72;4977661;28;1300;-68
2021/08/10 11:48:47;;;;;;;;;;;;;;;25.50;51.53;101017.25;4964608;28;1314;-67
2021/08/10 11:51:31;;;;;;;;;;;;;;;25.47;51.54;101009.47;4966459;28;1253;-66
2021/08/10 11:53:58;;;;;;;;;;;;;;;25.51;52.04;101024.28;4962229;28;1272;-69
2021/08/10 11:56:25;;;;;;;;;;;;;;;25.50;51.53;101025.25;4961182;28;1919;-68
2021/08/10 11:58:52;;;;;;;;;;;;;;;25.50;52.11;101014.56;4967655;28;1116;-69
2021/08/10 12:01:19;;;;;;;;;;;;;;;25.51;51.66;101021.63;4969141;28;1221;-69
2021/08/10 12:03:46;;;;;;;;;;;;;;;25.51;52.05;101042.94;4970886;28;1207;-68
2021/08/10 12:06:13;;;;;;;;;;;;;;;25.53;51.97;101054.34;4953085;28;1245;-70
2021/08/10 12:08:40;;;;;;;;;;;;;;;25.56;52.32;101017.75;4970581;28;1139;-70
2021/08/10 12:11:07;;;;;;;;;;;;;;;25.54;52.25;101008.03;4970538;28;1276;-68
2021/08/10 12:13:34;;;;;;;;;;;;;;;25.60;53.05;101054.69;4970568;28;1471;-72
2021/08/10 12:16:06;;;;;;;;;;;;;;;25.68;52.79;101038.06;4969609;28;1985;-71
2021/08/10 12:18:33;;;;;;;;;;;;;;;25.74;53.10;101069.59;4970171;28;806;-74
2021/08/10 12:21:04;;;;;;;;;;;;;;;25.75;52.89;101080.13;4953323;28;1328;-72
2021/08/10 12:23:38;;;;;;;;;;;;;;;25.74;52.78;101042.91;4970374;28;803;-73
2021/08/10 12:26:12;;;;;;;;;;;;;;;25.76;53.07;101055.16;4970670;28;1230;-70
2021/08/10 12:28:54;;;;;;;;;;;;;;;25.89;53.00;101116.38;4963281;28;1621;-70
2021/08/10 12:31:21;;;;;;;;;;;;;;;25.87;52.93;101145.03;4967490;28;1688;-70
2021/08/10 12:33:55;;;;;;;;;;;;;;;25.86;52.78;101151.31;4970049;28;1240;-76
2021/08/10 12:36:22;;;;;;;;;;;;;;;25.84;52.75;101127.41;4936188;28;1985;-68
2021/08/10 12:38:50;;;;;;;;;;;;;;;25.74;52.43;101101.63;4951325;28;1207;-65
2021/08/10 12:41:28;;;;;;;;;;;;;;;25.69;52.71;101159.81;4966521;28;1525;-64
2021/08/10 12:43:55;;;;;;;;;;;;;;;25.65;52.79;101185.91;4950441;28;1347;-65
2021/08/10 12:46:30;;;;;;;;;;;;;;;25.66;52.71;101197.41;4968623;28;1269;-64
2021/08/10 12:49:09;;;;;;;;;;;;;;;25.68;53.14;101209.69;4967596;28;1316;-66
2021/08/10 12:51:51;;;;;;;;;;;;;;;25.69;53.18;101219.34;4969024;28;1281;-66
2021/08/10 12:54:18;;;;;;;;;;;;;;;25.68;52.70;101190.16;4951426;28;1287;-67
2021/08/10 12:56:45;;;;;;;;;;;;;;;25.66;52.72;101144.03;4934895;28;1942;-65
2021/08/10 12:59:12;;;;;;;;;;;;;;;25.65;52.53;101071.19;4968071;28;1207;-64